Riparius, New York
Current Conditions -  °F | °C
As of 5:53 PM on Thursday 23 Oct 2014 (Local Time) from KGFL Reporting Station
Overcast Overcast  
Wind Chill: 44°   Ceiling: 2200
Heat Index: 48°   Visibility: 10mi
Dew Point: 43°   Wind: 9mph
Humidity: 83%   Direction: 360°N
Pressure: 29.84"   Gusts: NA
Location:  43.66°N, 73.9°W
Report Text: KGFL 232153Z AUTO 36008KT 10SM OVC022 09/06 A2984 RMK AO2 SLP108 T00890061
Loading
Personal Weather Stations






























Interactive Weather Map
Tropical Storm Tracking
New forecast layout! Learn more

10-Day Weather Forecast

Advertisements
Track Severe Weather on mobile